createdAt,value
2022-11-08T00:02:06.263Z,3.93
2022-11-08T00:04:34.428Z,3.77
2022-11-08T00:07:19.566Z,4.43
2022-11-08T00:10:04.932Z,8.00
2022-11-08T00:12:50.243Z,5.43
2022-11-08T00:15:17.028Z,13.33
2022-11-08T00:17:43.713Z,4.83
2022-11-08T00:20:11.232Z,7.30
2022-11-08T00:22:37.909Z,4.83
2022-11-08T00:25:04.882Z,4.40
2022-11-08T00:27:31.541Z,4.87
2022-11-08T00:29:58.185Z,3.43
2022-11-08T00:32:26.342Z,9.13
2022-11-08T00:34:53.808Z,4.30
2022-11-08T00:37:21.708Z,7.20
2022-11-08T00:39:48.949Z,4.23
2022-11-08T00:42:15.814Z,1.83
2022-11-08T00:44:42.550Z,3.83
2022-11-08T00:47:09.391Z,8.33
2022-11-08T00:49:36.186Z,5.30
2022-11-08T00:52:03.010Z,4.90
2022-11-08T00:54:29.742Z,10.73
2022-11-08T00:56:56.370Z,6.40
2022-11-08T00:59:23.045Z,2.50
2022-11-08T01:01:49.864Z,7.83
2022-11-08T01:04:18.654Z,3.87
2022-11-08T01:06:45.469Z,5.00
2022-11-08T01:09:12.254Z,3.40
2022-11-08T01:11:40.241Z,16.50
2022-11-08T01:14:07.036Z,6.27
2022-11-08T01:16:34.773Z,9.00
2022-11-08T01:19:02.308Z,6.30
2022-11-08T01:21:29.783Z,12.93
2022-11-08T01:23:56.686Z,2.50
2022-11-08T01:26:26.489Z,6.27
2022-11-08T01:28:54.385Z,3.63
2022-11-08T01:31:24.366Z,8.17
2022-11-08T01:33:52.075Z,4.53
2022-11-08T01:36:21.588Z,3.47
2022-11-08T01:38:48.843Z,3.57
2022-11-08T01:41:18.942Z,6.93
2022-11-08T01:43:56.511Z,4.03
2022-11-08T01:46:33.403Z,4.57
2022-11-08T01:49:32.484Z,7.77
2022-11-08T01:52:16.848Z,2.80
2022-11-08T01:54:52.132Z,3.90
2022-11-08T01:57:23.333Z,6.67
2022-11-08T01:59:52.948Z,3.73
2022-11-08T02:02:20.806Z,6.03
2022-11-08T02:04:47.733Z,2.90
2022-11-08T02:07:15.772Z,5.43
2022-11-08T02:09:44.698Z,9.90
2022-11-08T02:12:13.558Z,4.47
2022-11-08T02:14:40.265Z,4.33
2022-11-08T02:17:07.859Z,3.10
2022-11-08T02:19:39.097Z,4.40
2022-11-08T02:22:27.896Z,2.73
2022-11-08T02:24:55.066Z,3.03
2022-11-08T02:27:21.709Z,2.50
2022-11-08T02:29:53.512Z,2.73
2022-11-08T02:32:20.435Z,5.43
2022-11-08T02:34:54.973Z,3.70
2022-11-08T02:37:23.340Z,3.80
2022-11-08T02:39:50.003Z,2.03
2022-11-08T02:42:19.239Z,7.73
2022-11-08T02:44:49.231Z,7.20
2022-11-08T02:47:16.089Z,3.50
2022-11-08T02:49:43.411Z,2.90
2022-11-08T02:52:10.696Z,2.93
2022-11-08T02:54:37.302Z,3.43
2022-11-08T02:57:04.003Z,2.37
2022-11-08T02:59:30.700Z,5.07
2022-11-08T03:01:57.530Z,2.40
2022-11-08T03:04:24.284Z,3.23
2022-11-08T03:06:50.915Z,3.23
2022-11-08T03:09:17.571Z,3.97
2022-11-08T03:11:44.234Z,2.13
2022-11-08T03:14:10.909Z,5.63
2022-11-08T03:16:37.658Z,2.90
2022-11-08T03:19:04.393Z,6.60
2022-11-08T03:21:31.134Z,2.13
2022-11-08T03:23:57.855Z,4.80
2022-11-08T03:26:24.496Z,5.03
2022-11-08T03:28:51.163Z,5.80
2022-11-08T03:31:17.827Z,12.50
2022-11-08T03:33:44.612Z,3.03
2022-11-08T03:36:11.295Z,1.60
2022-11-08T03:38:37.957Z,4.10
2022-11-08T03:41:04.776Z,3.60
2022-11-08T03:43:31.436Z,3.50
2022-11-08T03:45:58.087Z,3.80
2022-11-08T03:48:24.817Z,1.67
2022-11-08T03:50:51.924Z,2.10
2022-11-08T03:53:18.958Z,3.50
2022-11-08T03:55:45.628Z,2.73
2022-11-08T03:58:12.556Z,1.63
2022-11-08T04:00:39.578Z,9.03
2022-11-08T04:03:06.271Z,4.73
2022-11-08T04:05:33.551Z,3.00
2022-11-08T04:08:01.622Z,4.47
2022-11-08T04:10:28.702Z,2.23
2022-11-08T04:13:14.124Z,3.77
2022-11-08T04:15:40.781Z,6.97
2022-11-08T04:18:25.954Z,2.20
2022-11-08T04:21:11.492Z,2.20
2022-11-08T04:23:38.585Z,1.93
2022-11-08T04:26:07.893Z,3.93
2022-11-08T04:28:36.813Z,5.10
2022-11-08T04:31:07.082Z,4.17
2022-11-08T04:33:33.985Z,3.00
2022-11-08T04:36:09.925Z,4.27
2022-11-08T04:38:36.732Z,5.60
2022-11-08T04:41:04.310Z,6.10
2022-11-08T04:43:31.707Z,4.90
2022-11-08T04:46:09.879Z,9.43
2022-11-08T04:48:37.027Z,2.20
2022-11-08T04:51:16.339Z,2.10
2022-11-08T04:53:43.218Z,3.73
2022-11-08T04:56:12.352Z,3.60
2022-11-08T04:58:44.764Z,3.00
2022-11-08T05:01:14.387Z,6.17
2022-11-08T05:03:41.418Z,5.70
2022-11-08T05:06:12.481Z,5.53
2022-11-08T05:08:39.753Z,15.33
2022-11-08T05:11:15.084Z,3.67
2022-11-08T05:13:42.331Z,2.60
2022-11-08T05:16:22.544Z,4.10
2022-11-08T05:18:49.797Z,3.40
2022-11-08T05:21:37.117Z,4.40
2022-11-08T05:24:05.986Z,3.37
2022-11-08T05:26:37.937Z,2.70
2022-11-08T05:29:05.602Z,7.73
2022-11-08T05:31:32.580Z,3.07
2022-11-08T05:34:00.699Z,4.00
2022-11-08T05:36:28.080Z,3.60
2022-11-08T05:38:55.717Z,3.27
2022-11-08T05:41:24.603Z,5.23
2022-11-08T05:43:53.281Z,12.00
2022-11-08T05:46:21.957Z,3.00
2022-11-08T05:48:48.937Z,4.00
2022-11-08T05:51:17.361Z,4.50
2022-11-08T05:53:44.206Z,3.10
2022-11-08T05:56:10.896Z,2.50
2022-11-08T05:58:37.588Z,7.00
2022-11-08T06:01:10.461Z,2.97
2022-11-08T06:03:37.989Z,23.93
2022-11-08T06:06:10.683Z,5.00
2022-11-08T06:08:38.235Z,2.90
2022-11-08T06:11:06.608Z,5.53
2022-11-08T06:13:34.342Z,9.20
2022-11-08T06:16:05.882Z,5.20
2022-11-08T06:18:34.132Z,3.53
2022-11-08T06:21:05.370Z,7.13
2022-11-08T06:23:32.343Z,4.77
2022-11-08T06:25:59.818Z,2.90
2022-11-08T06:28:27.228Z,11.53
2022-11-08T06:30:54.098Z,8.30
2022-11-08T06:33:22.005Z,6.93
2022-11-08T06:35:48.896Z,10.33
2022-11-08T06:38:15.550Z,4.10
2022-11-08T06:40:42.684Z,8.40
2022-11-08T06:43:15.071Z,3.47
2022-11-08T06:45:46.010Z,2.50
2022-11-08T06:48:12.697Z,5.00
2022-11-08T06:50:39.464Z,2.00
2022-11-08T06:53:07.926Z,1.83
2022-11-08T06:55:35.635Z,7.13
2022-11-08T06:58:03.771Z,3.20
2022-11-08T07:00:30.909Z,4.77
2022-11-08T07:03:00.108Z,3.37
2022-11-08T07:05:29.001Z,6.10
2022-11-08T07:07:58.185Z,3.80
2022-11-08T07:10:27.422Z,16.40
2022-11-08T07:13:03.223Z,30.50
2022-11-08T07:15:30.644Z,13.53
2022-11-08T07:18:01.265Z,20.60
2022-11-08T07:20:28.081Z,14.17
2022-11-08T07:22:56.147Z,4.40
2022-11-08T07:25:23.803Z,7.20
2022-11-08T07:27:50.603Z,9.40
2022-11-08T07:30:17.462Z,4.40
2022-11-08T07:32:44.081Z,11.83
2022-11-08T07:35:10.723Z,3.23
2022-11-08T07:37:37.418Z,5.83
2022-11-08T07:40:04.593Z,5.30
2022-11-08T07:42:56.896Z,8.97
2022-11-08T07:45:18.047Z,13.30
2022-11-08T07:47:44.700Z,9.17
2022-11-08T07:50:12.730Z,7.43
2022-11-08T07:52:40.925Z,17.00
2022-11-08T07:55:08.287Z,14.63
2022-11-08T07:57:34.929Z,10.13
2022-11-08T08:00:07.247Z,6.73
2022-11-08T08:02:34.464Z,7.03
2022-11-08T08:05:01.094Z,9.37
2022-11-08T08:07:27.724Z,12.03
2022-11-08T08:09:54.671Z,17.60
2022-11-08T08:12:21.487Z,13.40
2022-11-08T08:14:48.152Z,6.30
2022-11-08T08:17:14.809Z,9.40
2022-11-08T08:19:41.465Z,14.20
2022-11-08T08:22:08.261Z,9.67
2022-11-08T08:24:34.900Z,9.47
2022-11-08T08:27:01.568Z,14.33
2022-11-08T08:29:31.132Z,9.70
2022-11-08T08:31:57.836Z,8.90
2022-11-08T08:34:24.466Z,10.33
2022-11-08T08:36:51.117Z,8.00
2022-11-08T08:39:17.818Z,14.77
2022-11-08T08:41:44.508Z,15.80
2022-11-08T08:44:11.249Z,12.63
2022-11-08T08:46:37.906Z,9.47
2022-11-08T08:49:04.575Z,10.53
2022-11-08T08:51:31.288Z,6.97
2022-11-08T08:53:58.784Z,6.67
2022-11-08T08:56:25.455Z,6.83
2022-11-08T09:01:38.903Z,61.53
2022-11-08T09:04:05.704Z,18.70
2022-11-08T09:06:32.629Z,17.40
2022-11-08T09:08:59.355Z,39.80
2022-11-08T09:11:26.012Z,18.00
2022-11-08T09:13:52.671Z,20.40
2022-11-08T09:16:19.733Z,13.03
2022-11-08T09:18:46.506Z,16.40
2022-11-08T09:21:13.283Z,16.00
2022-11-08T09:23:42.267Z,19.70
2022-11-08T09:26:10.378Z,22.03
2022-11-08T09:28:37.552Z,11.70
2022-11-08T09:31:06.131Z,12.40
2022-11-08T09:33:33.488Z,12.23
2022-11-08T09:36:01.547Z,11.50
2022-11-08T09:38:28.535Z,11.60
2022-11-08T09:41:22.333Z,14.70
2022-11-08T09:44:10.448Z,10.63
2022-11-08T09:46:50.836Z,17.20
2022-11-08T09:49:22.514Z,13.83
2022-11-08T09:51:49.777Z,13.13
2022-11-08T09:54:31.438Z,8.73
2022-11-08T09:56:58.585Z,12.17
2022-11-08T09:59:42.870Z,10.20
2022-11-08T10:02:18.482Z,9.00
2022-11-08T10:04:51.918Z,18.53
2022-11-08T10:07:44.414Z,15.60
2022-11-08T10:10:30.270Z,15.30
2022-11-08T10:13:15.132Z,14.37
2022-11-08T10:16:02.242Z,10.83
2022-11-08T10:18:42.135Z,16.20
2022-11-08T10:21:22.478Z,5.97
2022-11-08T10:24:09.112Z,11.90
2022-11-08T10:26:42.581Z,5.93
2022-11-08T10:29:26.446Z,7.27
2022-11-08T10:32:03.280Z,6.67
2022-11-08T10:34:39.126Z,6.77
2022-11-08T10:37:08.628Z,5.63
2022-11-08T10:39:50.564Z,4.40
2022-11-08T10:42:43.971Z,3.47
2022-11-08T10:45:12.251Z,6.20
2022-11-08T10:47:40.228Z,10.53
2022-11-08T10:50:20.390Z,5.23
2022-11-08T10:52:58.062Z,16.53
2022-11-08T10:55:33.458Z,7.10
2022-11-08T10:58:00.589Z,5.33
2022-11-08T11:00:30.025Z,8.33
2022-11-08T11:03:00.815Z,6.47
2022-11-08T11:05:31.891Z,10.87
2022-11-08T11:08:03.320Z,5.00
2022-11-08T11:10:37.489Z,11.10
2022-11-08T11:13:09.084Z,6.47
2022-11-08T11:15:39.780Z,2.70
2022-11-08T11:18:23.686Z,5.63
2022-11-08T11:21:09.069Z,3.97
2022-11-08T11:23:58.528Z,4.83
2022-11-08T11:26:32.008Z,3.47
2022-11-08T11:29:04.728Z,12.40
2022-11-08T11:31:37.093Z,4.70
2022-11-08T11:34:19.057Z,2.20
2022-11-08T11:37:05.513Z,2.20
2022-11-08T11:39:56.089Z,3.33
2022-11-08T11:42:49.892Z,1.50
2022-11-08T11:45:35.124Z,2.40
2022-11-08T11:48:13.705Z,1.23
2022-11-08T11:50:45.371Z,3.40
2022-11-08T11:53:27.336Z,1.63
2022-11-08T11:56:09.430Z,4.90
2022-11-08T11:58:53.966Z,2.57
2022-11-08T12:01:41.829Z,4.40
2022-11-08T12:04:39.189Z,1.80
2022-11-08T12:07:24.113Z,1.10
2022-11-08T12:10:05.890Z,2.30
2022-11-08T12:12:57.596Z,8.13
2022-11-08T12:15:27.404Z,4.10
2022-11-08T12:18:02.579Z,2.23
2022-11-08T12:20:56.504Z,1.57
2022-11-08T12:23:26.126Z,2.47
2022-11-08T12:26:04.501Z,2.83
2022-11-08T12:28:31.099Z,7.37
2022-11-08T12:31:15.208Z,3.43
2022-11-08T12:33:58.222Z,8.73
2022-11-08T12:37:00.482Z,1.93
2022-11-08T12:39:36.010Z,1.73
2022-11-08T12:42:42.043Z,2.43
2022-11-08T12:45:33.286Z,1.13
2022-11-08T12:48:29.244Z,4.07
2022-11-08T12:51:01.542Z,5.53
2022-11-08T12:53:37.317Z,3.70
2022-11-08T12:56:11.055Z,2.80
2022-11-08T12:58:50.011Z,1.87
2022-11-08T13:01:18.999Z,2.87
2022-11-08T13:03:51.595Z,1.77
2022-11-08T13:06:36.913Z,5.27
2022-11-08T13:09:34.705Z,1.83
2022-11-08T13:12:19.680Z,4.03
2022-11-08T13:14:46.993Z,2.10
2022-11-08T13:17:26.527Z,3.10
2022-11-08T13:20:02.154Z,2.03
2022-11-08T13:22:31.254Z,2.03
2022-11-08T13:25:13.218Z,4.87
2022-11-08T13:27:40.921Z,4.30
2022-11-08T13:30:16.897Z,2.27
2022-11-08T13:32:43.550Z,1.00
2022-11-08T13:35:48.663Z,2.33
2022-11-08T13:38:35.320Z,2.27
2022-11-08T13:41:18.393Z,2.20
2022-11-08T13:43:46.055Z,4.90
2022-11-08T13:46:27.790Z,2.03
2022-11-08T13:49:05.269Z,5.10
2022-11-08T13:51:32.941Z,1.33
2022-11-08T13:54:03.765Z,1.20
2022-11-08T13:56:48.640Z,4.73
2022-11-08T13:59:30.793Z,2.60
2022-11-08T14:02:36.868Z,2.83
2022-11-08T14:05:24.828Z,2.80
2022-11-08T14:08:13.174Z,1.10
2022-11-08T14:10:59.430Z,2.43
2022-11-08T14:13:34.868Z,6.33
2022-11-08T14:16:06.819Z,1.80
2022-11-08T14:18:39.088Z,1.60
2022-11-08T14:21:06.795Z,6.20
2022-11-08T14:23:39.781Z,1.40
2022-11-08T14:26:17.817Z,4.93
2022-11-08T14:28:46.594Z,2.90
2022-11-08T14:31:34.151Z,5.80
2022-11-08T14:34:02.149Z,6.83
2022-11-08T14:36:34.714Z,4.00
2022-11-08T14:39:19.136Z,6.10
2022-11-08T14:41:48.091Z,5.10
2022-11-08T14:44:16.917Z,14.50
2022-11-08T14:46:43.999Z,2.90
2022-11-08T14:49:13.360Z,12.80
2022-11-08T14:51:40.892Z,6.80
2022-11-08T14:54:18.576Z,6.03
2022-11-08T14:56:46.084Z,3.43
2022-11-08T14:59:13.528Z,4.07
2022-11-08T15:01:44.126Z,2.53
2022-11-08T15:04:36.912Z,4.47
2022-11-08T15:07:09.259Z,2.70
2022-11-08T15:09:36.320Z,2.53
2022-11-08T15:12:13.913Z,1.50
2022-11-08T15:14:48.638Z,6.47
2022-11-08T15:17:35.263Z,2.30
2022-11-08T15:20:06.946Z,3.23
2022-11-08T15:22:36.210Z,2.57
2022-11-08T15:25:32.297Z,19.40
2022-11-08T15:28:14.343Z,4.50
2022-11-08T15:30:43.157Z,5.03
2022-11-08T15:33:26.784Z,5.33
2022-11-08T15:35:53.666Z,10.17
2022-11-08T15:38:40.553Z,4.20
2022-11-08T15:41:38.218Z,6.90
2022-11-08T15:44:25.828Z,6.40
2022-11-08T15:46:54.261Z,10.90
2022-11-08T15:49:26.316Z,4.67
2022-11-08T15:51:55.189Z,1.93
2022-11-08T15:54:23.648Z,4.23
2022-11-08T15:56:53.249Z,6.83
2022-11-08T15:59:23.314Z,3.50
2022-11-08T16:01:55.326Z,7.43
2022-11-08T16:04:22.240Z,6.80
2022-11-08T16:06:48.997Z,4.83
2022-11-08T16:09:15.746Z,2.67
2022-11-08T16:11:44.820Z,3.10
2022-11-08T16:14:20.097Z,3.67
2022-11-08T16:16:46.940Z,16.67
2022-11-08T16:19:21.618Z,10.00
2022-11-08T16:21:48.510Z,8.10
2022-11-08T16:24:15.868Z,7.23
2022-11-08T16:26:44.120Z,2.77
2022-11-08T16:29:19.401Z,3.50
2022-11-08T16:31:46.234Z,8.73
2022-11-08T16:34:12.989Z,4.13
2022-11-08T16:36:39.704Z,3.27
2022-11-08T16:39:14.120Z,8.23
2022-11-08T16:41:42.928Z,3.37
2022-11-08T16:44:11.043Z,4.13
2022-11-08T16:46:37.845Z,3.60
2022-11-08T16:49:07.130Z,4.97
2022-11-08T16:52:31.042Z,3.97
2022-11-08T16:54:57.802Z,3.47
2022-11-08T16:57:39.846Z,3.93
2022-11-08T17:00:08.113Z,2.97
2022-11-08T17:02:37.653Z,7.40
2022-11-08T17:05:05.044Z,7.63
2022-11-08T17:07:32.170Z,3.80
2022-11-08T17:09:58.879Z,4.07
2022-11-08T17:12:25.919Z,9.63
2022-11-08T17:14:53.251Z,2.70
2022-11-08T17:17:19.887Z,2.37
2022-11-08T17:19:46.539Z,5.83
2022-11-08T17:22:13.166Z,5.57
2022-11-08T17:24:39.867Z,5.00
2022-11-08T17:27:06.670Z,2.57
2022-11-08T17:29:33.302Z,3.40
2022-11-08T17:31:59.972Z,3.07
2022-11-08T17:34:26.615Z,4.13
2022-11-08T17:36:53.262Z,5.53
2022-11-08T17:39:19.965Z,5.10
2022-11-08T17:41:46.825Z,2.50
2022-11-08T17:44:14.302Z,7.33
2022-11-08T17:46:41.027Z,13.30
2022-11-08T17:49:08.705Z,5.33
2022-11-08T17:51:36.544Z,10.27
2022-11-08T17:54:03.421Z,5.83
2022-11-08T17:56:30.108Z,19.70
2022-11-08T17:58:56.745Z,5.53
2022-11-08T18:01:23.565Z,4.83
2022-11-08T18:03:50.594Z,8.87
2022-11-08T18:06:17.249Z,10.50
2022-11-08T18:08:43.970Z,4.30
2022-11-08T18:11:10.850Z,3.50
2022-11-08T18:13:37.580Z,7.63
2022-11-08T18:16:09.766Z,7.83
2022-11-08T18:18:37.971Z,4.80
2022-11-08T18:21:06.047Z,5.47
2022-11-08T18:23:32.898Z,6.57
2022-11-08T18:26:00.095Z,6.13
2022-11-08T18:28:26.874Z,8.73
2022-11-08T18:30:53.859Z,5.90
2022-11-08T18:33:21.731Z,5.53
2022-11-08T18:35:48.695Z,6.87
2022-11-08T18:38:15.376Z,7.03
2022-11-08T18:40:45.658Z,15.23
2022-11-08T18:43:12.312Z,6.47
2022-11-08T18:45:39.023Z,5.80
2022-11-08T18:48:06.102Z,6.17
2022-11-08T18:50:32.884Z,5.73
2022-11-08T18:53:03.251Z,11.00
2022-11-08T18:55:31.534Z,7.73
2022-11-08T18:57:58.284Z,11.20
2022-11-08T19:00:25.120Z,14.93
2022-11-08T19:02:51.809Z,10.93
2022-11-08T19:05:18.474Z,19.27
2022-11-08T19:07:45.142Z,16.93
2022-11-08T19:10:11.819Z,16.80
2022-11-08T19:12:38.439Z,23.00
2022-11-08T19:15:05.353Z,16.10
2022-11-08T19:17:32.926Z,23.93
2022-11-08T19:19:59.587Z,12.60
2022-11-08T19:22:26.251Z,21.27
2022-11-08T19:24:52.910Z,18.47
2022-11-08T19:27:20.458Z,10.97
2022-11-08T19:29:47.204Z,21.70
2022-11-08T19:32:13.842Z,21.47
2022-11-08T19:34:41.359Z,12.40
2022-11-08T19:37:08.072Z,32.63
2022-11-08T19:39:34.785Z,24.17
2022-11-08T19:42:01.442Z,12.80
2022-11-08T19:44:28.166Z,9.03
2022-11-08T19:46:54.870Z,9.00
2022-11-08T19:49:25.378Z,12.23
2022-11-08T19:51:52.739Z,9.63
2022-11-08T19:54:19.547Z,12.90
2022-11-08T19:59:33.707Z,19.53
2022-11-08T20:02:00.576Z,12.10
2022-11-08T20:04:27.379Z,11.87
2022-11-08T20:06:54.165Z,19.50
2022-11-08T20:09:24.629Z,10.07
2022-11-08T20:11:55.197Z,10.53
2022-11-08T20:14:21.939Z,12.67
2022-11-08T20:16:53.196Z,13.97
2022-11-08T20:19:20.722Z,17.00
2022-11-08T20:21:47.472Z,19.07
2022-11-08T20:24:15.066Z,18.90
2022-11-08T20:26:41.936Z,12.17
2022-11-08T20:29:09.086Z,12.43
2022-11-08T20:31:36.501Z,20.47
2022-11-08T20:34:05.904Z,27.57
2022-11-08T20:36:35.459Z,21.33
2022-11-08T20:39:06.836Z,23.63
2022-11-08T20:41:35.456Z,18.73
2022-11-08T20:44:02.556Z,29.53
2022-11-08T20:46:29.614Z,35.03
2022-11-08T20:49:00.101Z,32.80
2022-11-08T20:51:28.145Z,21.40
2022-11-08T20:53:55.847Z,25.00
2022-11-08T20:56:23.774Z,21.13
2022-11-08T20:58:51.582Z,22.80
2022-11-08T21:01:21.040Z,20.70
2022-11-08T21:03:48.098Z,18.23
2022-11-08T21:06:18.228Z,14.30
2022-11-08T21:09:09.938Z,14.70
2022-11-08T21:11:34.659Z,12.00
2022-11-08T21:14:02.501Z,9.90
2022-11-08T21:16:30.909Z,15.20
2022-11-08T21:19:01.937Z,8.67
2022-11-08T21:21:29.015Z,9.83
2022-11-08T21:23:55.673Z,10.23
2022-11-08T21:26:23.037Z,8.47
2022-11-08T21:28:49.929Z,11.50
2022-11-08T21:31:17.187Z,11.43
2022-11-08T21:33:43.915Z,13.53
2022-11-08T21:36:11.028Z,13.93
2022-11-08T21:38:39.017Z,10.23
2022-11-08T21:41:07.836Z,10.97
2022-11-08T21:43:39.475Z,10.23
2022-11-08T21:46:18.521Z,13.73
2022-11-08T21:48:45.974Z,8.73
2022-11-08T21:51:13.391Z,8.67
2022-11-08T21:53:49.392Z,12.57
2022-11-08T21:56:19.440Z,9.93
2022-11-08T21:58:46.096Z,14.10
2022-11-08T22:01:12.920Z,9.87
2022-11-08T22:03:39.577Z,10.73
2022-11-08T22:06:06.888Z,11.30
2022-11-08T22:08:33.523Z,8.30
2022-11-08T22:11:00.243Z,10.87
2022-11-08T22:13:26.904Z,11.27
2022-11-08T22:15:53.561Z,14.80
2022-11-08T22:18:31.113Z,10.80
2022-11-08T22:21:25.644Z,13.00
2022-11-08T22:23:52.296Z,8.53
2022-11-08T22:26:18.998Z,9.73
2022-11-08T22:28:45.631Z,6.97
2022-11-08T22:31:12.333Z,11.07
2022-11-08T22:33:38.938Z,9.77
2022-11-08T22:36:05.837Z,8.03
2022-11-08T22:38:32.747Z,9.37
2022-11-08T22:40:59.404Z,8.20
2022-11-08T22:43:26.016Z,13.83
2022-11-08T22:45:52.694Z,10.40
2022-11-08T22:48:19.711Z,11.23
2022-11-08T22:50:47.702Z,11.70
2022-11-08T22:53:14.337Z,8.20
2022-11-08T22:55:41.185Z,9.90
2022-11-08T22:58:07.903Z,14.53
2022-11-08T23:00:34.547Z,13.30
2022-11-08T23:03:01.151Z,9.20
2022-11-08T23:05:27.891Z,14.10
2022-11-08T23:07:54.926Z,16.90
2022-11-08T23:10:21.596Z,9.80
2022-11-08T23:13:06.717Z,10.33
2022-11-08T23:15:54.665Z,9.97
2022-11-08T23:18:22.443Z,9.77
2022-11-08T23:21:07.949Z,8.83
2022-11-08T23:23:53.444Z,10.07
2022-11-08T23:26:40.093Z,14.93
2022-11-08T23:29:25.268Z,12.00
2022-11-08T23:31:51.918Z,12.33
2022-11-08T23:34:18.581Z,12.73
2022-11-08T23:36:45.229Z,17.17
2022-11-08T23:39:11.888Z,13.47
2022-11-08T23:41:57.283Z,16.63
2022-11-08T23:44:24.079Z,14.70
2022-11-08T23:46:56.008Z,14.83
2022-11-08T23:49:23.092Z,11.43
2022-11-08T23:51:49.903Z,20.93
2022-11-08T23:54:16.907Z,13.73
2022-11-08T23:56:44.491Z,11.47
2022-11-08T23:59:12.331Z,19.33
